Time;durP1;ratioP1;P1;durP2;ratioP2;P2;SDS_P1;SDS_P2;PMS_P1;PMS_P2;Temp;Humidity;BMP_temperature;BMP_pressure;BME280_temperature;BME280_humidity;BME280_pressure;Samples;Min_cycle;Max_cycle;Signal;HPM_P1;HPM_P2
2023/04/27 00:00:09;;;;;;;;;;;21.50;81.60;;;;;;5112985;28;20433;-52
2023/04/27 00:02:36;;;;;;;;;;;21.60;81.80;;;;;;5114290;28;19928;-51
2023/04/27 00:05:02;;;;;;;;;;;21.50;81.80;;;;;;5114648;28;19911;-54
2023/04/27 00:07:27;;;;;;;;;;;21.50;81.90;;;;;;5114642;28;20347;-55
2023/04/27 00:09:53;;;;;;;;;;;21.50;81.90;;;;;;5114559;28;19915;-51
2023/04/27 00:12:18;;;;;;;;;;;21.50;81.90;;;;;;5114298;28;20358;-53
2023/04/27 00:14:44;;;;;;;;;;;21.50;82.00;;;;;;5114499;28;19908;-52
2023/04/27 00:17:09;;;;;;;;;;;21.50;81.90;;;;;;5114146;28;19962;-48
2023/04/27 00:19:35;;;;;;;;;;;21.50;81.90;;;;;;5114433;28;20319;-51
2023/04/27 00:22:00;;;;;;;;;;;21.50;81.80;;;;;;5116345;28;19911;-50
2023/04/27 00:24:26;;;;;;;;;;;21.60;81.80;;;;;;5118453;28;20002;-52
2023/04/27 00:26:51;;;;;;;;;;;21.60;81.60;;;;;;5118319;27;19916;-53
2023/04/27 00:29:17;;;;;;;;;;;21.60;81.60;;;;;;5118608;28;19994;-53
2023/04/27 00:31:42;;;;;;;;;;;21.70;81.50;;;;;;5117300;28;19922;-54
2023/04/27 00:34:08;;;;;;;;;;;21.70;81.50;;;;;;5118570;28;19912;-52
2023/04/27 00:36:34;;;;;;;;;;;21.70;81.50;;;;;;5118382;28;19923;-50
2023/04/27 00:38:59;;;;;;;;;;;21.70;81.00;;;;;;5118016;28;19919;-54
2023/04/27 00:41:25;;;;;;;;;;;21.70;81.30;;;;;;5118583;28;20002;-52
2023/04/27 00:43:50;;;;;;;;;;;21.70;81.20;;;;;;5118353;28;20389;-54
2023/04/27 00:46:16;;;;;;;;;;;21.70;81.20;;;;;;5116899;28;19914;-52
2023/04/27 00:48:42;;;;;;;;;;;21.80;81.30;;;;;;5118090;28;19912;-51
2023/04/27 00:51:07;;;;;;;;;;;21.80;81.40;;;;;;5118128;28;19916;-55
2023/04/27 00:53:33;;;;;;;;;;;21.80;81.30;;;;;;5118146;27;19915;-52
2023/04/27 00:55:59;;;;;;;;;;;21.80;81.30;;;;;;5118081;28;20313;-54
2023/04/27 00:58:25;;;;;;;;;;;21.80;81.20;;;;;;5116723;28;19954;-52
2023/04/27 01:00:50;;;;;;;;;;;21.80;81.10;;;;;;5117928;28;19919;-52
2023/04/27 01:03:16;;;;;;;;;;;21.80;81.10;;;;;;5117951;28;19907;-55
2023/04/27 01:05:41;;;;;;;;;;;21.70;81.10;;;;;;5117631;28;19936;-54
2023/04/27 01:08:08;;;;;;;;;;;21.70;81.10;;;;;;5117825;28;19948;-50
2023/04/27 01:10:34;;;;;;;;;;;21.70;81.20;;;;;;5117837;28;19915;-51
2023/04/27 01:12:59;;;;;;;;;;;21.60;81.20;;;;;;5117761;28;19908;-52
2023/04/27 01:15:24;;;;;;;;;;;21.60;81.40;;;;;;5117717;28;19915;-51
2023/04/27 01:17:56;;;;;;;;;;;21.60;81.60;;;;;;5117406;28;20362;-52
2023/04/27 01:20:22;;;;;;;;;;;21.60;81.60;;;;;;5117642;28;20409;-55
2023/04/27 01:22:47;;;;;;;;;;;21.50;81.70;;;;;;5117333;28;19954;-53
2023/04/27 01:25:12;;;;;;;;;;;21.60;81.90;;;;;;5117286;28;19953;-54
2023/04/27 01:27:38;;;;;;;;;;;21.60;81.80;;;;;;5116569;28;20244;-54
2023/04/27 01:30:04;;;;;;;;;;;21.50;81.80;;;;;;5117190;28;20000;-51
2023/04/27 01:32:29;;;;;;;;;;;21.60;81.80;;;;;;5116385;28;20007;-53
2023/04/27 01:34:55;;;;;;;;;;;21.60;81.80;;;;;;5116883;28;19908;-53
2023/04/27 01:37:20;;;;;;;;;;;21.60;81.60;;;;;;5116150;28;19911;-54
2023/04/27 01:39:46;;;;;;;;;;;21.70;81.60;;;;;;5116900;28;20346;-53
2023/04/27 01:42:11;;;;;;;;;;;21.70;81.70;;;;;;5115440;28;19916;-52
2023/04/27 01:44:37;;;;;;;;;;;21.70;81.40;;;;;;5116902;28;19908;-52
2023/04/27 01:47:02;;;;;;;;;;;21.70;81.50;;;;;;5117112;28;19934;-50
2023/04/27 01:49:28;;;;;;;;;;;21.80;81.50;;;;;;5116673;28;19907;-50
2023/04/27 01:51:53;;;;;;;;;;;21.70;81.20;;;;;;5117022;28;19912;-52
2023/04/27 01:54:18;;;;;;;;;;;21.80;81.40;;;;;;5117316;28;20282;-53
2023/04/27 01:56:44;;;;;;;;;;;21.80;81.20;;;;;;5116652;28;20006;-52
2023/04/27 01:59:09;;;;;;;;;;;21.80;81.40;;;;;;5116492;28;19912;-52
2023/04/27 02:01:35;;;;;;;;;;;21.80;81.40;;;;;;5116826;28;20376;-50
2023/04/27 02:04:00;;;;;;;;;;;21.70;81.40;;;;;;5116427;27;19907;-53
2023/04/27 02:06:26;;;;;;;;;;;21.70;81.40;;;;;;5117050;28;19908;-52
2023/04/27 02:08:52;;;;;;;;;;;21.70;81.30;;;;;;5116698;28;19959;-54
2023/04/27 02:11:17;;;;;;;;;;;21.80;81.40;;;;;;5116340;28;20048;-52
2023/04/27 02:13:43;;;;;;;;;;;21.80;81.40;;;;;;5116314;28;19907;-52
2023/04/27 02:16:08;;;;;;;;;;;21.70;81.30;;;;;;5116845;28;19915;-54
2023/04/27 02:18:34;;;;;;;;;;;21.70;81.50;;;;;;5116415;28;19913;-53
2023/04/27 02:21:00;;;;;;;;;;;21.80;81.50;;;;;;5116168;28;20003;-53
2023/04/27 02:23:26;;;;;;;;;;;21.70;81.50;;;;;;5116331;28;19947;-53
2023/04/27 02:25:51;;;;;;;;;;;21.70;81.30;;;;;;5115281;28;19941;-52
2023/04/27 02:28:16;;;;;;;;;;;21.70;81.60;;;;;;5116278;28;20278;-53
2023/04/27 02:30:42;;;;;;;;;;;21.70;81.50;;;;;;5115976;28;19908;-53
2023/04/27 02:33:07;;;;;;;;;;;21.60;81.30;;;;;;5116207;28;19986;-54
2023/04/27 02:35:33;;;;;;;;;;;21.60;81.60;;;;;;5115908;28;19914;-53
2023/04/27 02:37:58;;;;;;;;;;;21.60;81.80;;;;;;5116128;28;19908;-52
2023/04/27 02:40:24;;;;;;;;;;;21.50;81.80;;;;;;5115764;28;19979;-53
2023/04/27 02:42:50;;;;;;;;;;;21.50;81.90;;;;;;5115748;28;19926;-54
2023/04/27 02:45:15;;;;;;;;;;;21.50;81.80;;;;;;5115239;28;19914;-50
2023/04/27 02:47:41;;;;;;;;;;;21.50;81.80;;;;;;5113749;28;20317;-53
2023/04/27 02:50:07;;;;;;;;;;;21.50;81.80;;;;;;5115846;28;19915;-52
2023/04/27 02:52:32;;;;;;;;;;;21.50;82.10;;;;;;5115257;28;19908;-53
2023/04/27 02:54:58;;;;;;;;;;;21.40;82.10;;;;;;5115780;28;19960;-52
2023/04/27 02:57:23;;;;;;;;;;;21.40;82.20;;;;;;5115981;28;20362;-53
2023/04/27 02:59:49;;;;;;;;;;;21.40;82.30;;;;;;5114302;28;19931;-50
2023/04/27 03:02:14;;;;;;;;;;;21.30;82.40;;;;;;5115647;28;19912;-53
2023/04/27 03:04:40;;;;;;;;;;;21.30;82.40;;;;;;5115228;28;19914;-49
2023/04/27 03:07:06;;;;;;;;;;;21.30;82.60;;;;;;5114473;28;19908;-51
2023/04/27 03:09:31;;;;;;;;;;;21.30;82.50;;;;;;5112983;28;19912;-55
2023/04/27 03:11:57;;;;;;;;;;;21.20;82.90;;;;;;5115118;27;19908;-53
2023/04/27 03:14:22;;;;;;;;;;;21.20;82.80;;;;;;5115400;28;20437;-52
2023/04/27 03:16:48;;;;;;;;;;;21.20;82.80;;;;;;5115245;28;19947;-53
2023/04/27 03:19:13;;;;;;;;;;;21.10;82.80;;;;;;5113897;28;19919;-54
2023/04/27 03:21:39;;;;;;;;;;;21.10;82.60;;;;;;5115327;28;19950;-55
2023/04/27 03:24:04;;;;;;;;;;;21.20;82.60;;;;;;5115168;28;20006;-54
2023/04/27 03:26:30;;;;;;;;;;;21.30;82.60;;;;;;5114974;27;20351;-53
2023/04/27 03:28:56;;;;;;;;;;;21.40;82.30;;;;;;5115173;28;19912;-54
2023/04/27 03:31:21;;;;;;;;;;;21.50;82.10;;;;;;5115063;28;20363;-53
2023/04/27 03:33:47;;;;;;;;;;;21.60;81.80;;;;;;5114667;28;20052;-54
2023/04/27 03:36:12;;;;;;;;;;;21.60;81.90;;;;;;5112735;28;19937;-52
2023/04/27 03:38:38;;;;;;;;;;;21.60;81.80;;;;;;5114838;28;19919;-53
2023/04/27 03:41:03;;;;;;;;;;;21.50;82.00;;;;;;5115121;28;19977;-54
2023/04/27 03:43:28;;;;;;;;;;;21.50;82.00;;;;;;5112855;28;20274;-55
2023/04/27 03:45:54;;;;;;;;;;;21.50;82.20;;;;;;5114812;28;19912;-50
2023/04/27 03:48:20;;;;;;;;;;;21.40;82.20;;;;;;5114571;28;19957;-52
2023/04/27 03:50:46;;;;;;;;;;;21.30;82.30;;;;;;5114753;28;20002;-52
2023/04/27 03:53:12;;;;;;;;;;;21.30;82.50;;;;;;5112763;28;20536;-52
2023/04/27 03:55:38;;;;;;;;;;;21.20;82.30;;;;;;5111649;27;19918;-55
2023/04/27 03:58:03;;;;;;;;;;;21.10;82.70;;;;;;5114172;28;20359;-52
2023/04/27 04:00:30;;;;;;;;;;;21.10;82.90;;;;;;5115482;28;19928;-55
2023/04/27 04:02:55;;;;;;;;;;;21.00;83.00;;;;;;5107907;27;19912;-51
2023/04/27 04:05:21;;;;;;;;;;;21.00;82.80;;;;;;5092255;28;20325;-53
2023/04/27 04:07:46;;;;;;;;;;;21.00;83.20;;;;;;5092380;28;19916;-55
2023/04/27 04:10:12;;;;;;;;;;;20.90;83.40;;;;;;5091852;28;19919;-53
2023/04/27 04:12:37;;;;;;;;;;;21.00;83.50;;;;;;5092072;28;19915;-54
2023/04/27 04:15:03;;;;;;;;;;;21.00;83.40;;;;;;5091642;28;20398;-52
2023/04/27 04:17:29;;;;;;;;;;;21.20;83.30;;;;;;5091631;28;20002;-54
2023/04/27 04:19:54;;;;;;;;;;;21.40;82.80;;;;;;5093218;28;19951;-54
2023/04/27 04:22:20;;;;;;;;;;;21.70;82.00;;;;;;5093435;28;19919;-54
2023/04/27 04:24:46;;;;;;;;;;;21.80;81.80;;;;;;5093828;28;19908;-52
2023/04/27 04:27:12;;;;;;;;;;;21.90;81.60;;;;;;5093953;28;19915;-52
2023/04/27 04:29:37;;;;;;;;;;;21.90;81.40;;;;;;5093690;28;19908;-51
2023/04/27 04:32:03;;;;;;;;;;;21.80;81.50;;;;;;5093962;28;19912;-54
2023/04/27 04:34:29;;;;;;;;;;;21.80;81.70;;;;;;5093605;28;20398;-54
2023/04/27 04:36:56;;;;;;;;;;;21.70;81.80;;;;;;5093745;28;19908;-54
2023/04/27 04:39:22;;;;;;;;;;;21.60;82.00;;;;;;5093704;28;19978;-55
2023/04/27 04:41:50;;;;;;;;;;;21.50;81.90;;;;;;5093800;28;19912;-51
2023/04/27 04:44:15;;;;;;;;;;;21.50;81.80;;;;;;5093880;28;19924;-51
2023/04/27 04:46:41;;;;;;;;;;;21.40;82.20;;;;;;5093531;28;20296;-53
2023/04/27 04:49:07;;;;;;;;;;;21.30;82.30;;;;;;5093761;28;20010;-55
2023/04/27 04:51:32;;;;;;;;;;;21.30;82.60;;;;;;5093782;28;20331;-52
2023/04/27 04:54:00;;;;;;;;;;;21.20;82.80;;;;;;5092693;28;20225;-56
2023/04/27 04:56:25;;;;;;;;;;;21.10;82.80;;;;;;5093646;28;19959;-52
2023/04/27 04:58:51;;;;;;;;;;;21.10;83.10;;;;;;5093579;28;19916;-51
2023/04/27 05:01:16;;;;;;;;;;;21.00;83.10;;;;;;5093336;28;20375;-53
2023/04/27 05:03:41;;;;;;;;;;;21.00;83.30;;;;;;5093624;28;19935;-54
2023/04/27 05:06:07;;;;;;;;;;;21.00;83.50;;;;;;5093557;28;19991;-54
2023/04/27 05:08:32;;;;;;;;;;;21.10;83.60;;;;;;5095792;28;19908;-52
2023/04/27 05:10:58;;;;;;;;;;;21.20;83.50;;;;;;5097235;28;20003;-54
2023/04/27 05:13:23;;;;;;;;;;;21.40;83.00;;;;;;5097183;28;19915;-53
2023/04/27 05:15:49;;;;;;;;;;;21.60;82.40;;;;;;5097085;28;19933;-53
2023/04/27 05:18:15;;;;;;;;;;;21.80;81.80;;;;;;5096784;28;19908;-54
2023/04/27 05:20:40;;;;;;;;;;;21.90;81.20;;;;;;5115200;27;19965;-55
2023/04/27 05:23:06;;;;;;;;;;;21.90;81.10;;;;;;5121369;27;19912;-51
2023/04/27 05:25:32;;;;;;;;;;;22.00;81.00;;;;;;5117282;27;20115;-52
2023/04/27 05:27:57;;;;;;;;;;;21.90;81.10;;;;;;5116889;28;20320;-51
2023/04/27 05:30:23;;;;;;;;;;;21.90;81.40;;;;;;5120673;27;19990;-53
2023/04/27 05:32:48;;;;;;;;;;;21.80;81.10;;;;;;5137758;27;20003;-54
2023/04/27 05:35:13;;;;;;;;;;;21.70;81.10;;;;;;5118265;27;20384;-55
2023/04/27 05:37:39;;;;;;;;;;;21.70;81.00;;;;;;5116844;28;19908;-51
2023/04/27 05:40:08;;;;;;;;;;;21.60;79.90;;;;;;5125782;27;19919;-54
2023/04/27 05:42:33;;;;;;;;;;;21.50;80.80;;;;;;5137133;27;19920;-51
2023/04/27 05:44:59;;;;;;;;;;;21.40;81.20;;;;;;5128561;27;19916;-52
2023/04/27 05:47:24;;;;;;;;;;;21.30;81.60;;;;;;5117005;28;20013;-51
2023/04/27 05:49:51;;;;;;;;;;;21.30;81.90;;;;;;5115330;27;20365;-50
2023/04/27 05:52:17;;;;;;;;;;;21.20;82.30;;;;;;5115773;27;19918;-59
2023/04/27 05:54:48;;;;;;;;;;;21.20;83.00;;;;;;5120316;27;19912;-56
2023/04/27 05:57:14;;;;;;;;;;;21.00;74.20;;;;;;5134253;27;20309;-52
2023/04/27 05:59:40;;;;;;;;;;;20.80;74.70;;;;;;5136430;27;19927;-53
2023/04/27 06:02:06;;;;;;;;;;;20.70;74.60;;;;;;5130960;27;19930;-56
2023/04/27 06:04:32;;;;;;;;;;;20.70;74.50;;;;;;5126372;27;19922;-55
2023/04/27 06:06:57;;;;;;;;;;;20.70;74.30;;;;;;5115009;28;19998;-54
2023/04/27 06:09:23;;;;;;;;;;;20.80;74.00;;;;;;5114736;28;20027;-53
2023/04/27 06:11:48;;;;;;;;;;;21.00;74.00;;;;;;5114891;28;20326;-54
2023/04/27 06:14:15;;;;;;;;;;;21.00;74.00;;;;;;5111634;27;20381;-50
2023/04/27 06:16:40;;;;;;;;;;;21.00;74.20;;;;;;5128692;27;19912;-57
2023/04/27 06:19:06;;;;;;;;;;;21.10;75.60;;;;;;5134455;27;19938;-53
2023/04/27 06:21:32;;;;;;;;;;;21.20;76.60;;;;;;5136442;27;19911;-54
2023/04/27 06:23:58;;;;;;;;;;;21.20;77.20;;;;;;5136450;27;20354;-53
2023/04/27 06:26:23;;;;;;;;;;;21.30;77.60;;;;;;5136457;27;19907;-54
2023/04/27 06:28:49;;;;;;;;;;;21.20;77.90;;;;;;5136376;27;19934;-55
2023/04/27 06:31:14;;;;;;;;;;;21.20;78.20;;;;;;5136474;27;19908;-57
2023/04/27 06:33:40;;;;;;;;;;;21.20;78.60;;;;;;5136206;27;20269;-56
2023/04/27 06:36:06;;;;;;;;;;;21.10;78.90;;;;;;5136322;27;19932;-52
2023/04/27 06:38:31;;;;;;;;;;;21.10;79.30;;;;;;5136393;27;19912;-56
2023/04/27 06:40:58;;;;;;;;;;;21.00;79.70;;;;;;5136388;27;19914;-56
2023/04/27 06:43:23;;;;;;;;;;;21.00;80.00;;;;;;5136240;27;19955;-54
2023/04/27 06:45:49;;;;;;;;;;;20.90;80.30;;;;;;5135818;27;20345;-53
2023/04/27 06:48:14;;;;;;;;;;;20.90;80.60;;;;;;5136267;27;20006;-53
2023/04/27 06:50:40;;;;;;;;;;;20.90;80.80;;;;;;5136296;27;19908;-55
2023/04/27 06:53:05;;;;;;;;;;;20.90;81.00;;;;;;5134922;27;20048;-52
2023/04/27 06:55:31;;;;;;;;;;;20.90;81.10;;;;;;5134970;27;19907;-53
2023/04/27 06:57:56;;;;;;;;;;;20.90;81.00;;;;;;5135577;27;19955;-56
2023/04/27 07:00:21;;;;;;;;;;;21.10;80.90;;;;;;5135545;27;19926;-55
2023/04/27 07:02:47;;;;;;;;;;;21.30;80.50;;;;;;5135809;27;19949;-55
2023/04/27 07:05:13;;;;;;;;;;;21.50;80.10;;;;;;5136104;27;19946;-56
2023/04/27 07:07:38;;;;;;;;;;;21.60;79.70;;;;;;5135773;27;19908;-53
2023/04/27 07:10:04;;;;;;;;;;;21.70;79.50;;;;;;5135584;27;19907;-57
2023/04/27 07:12:30;;;;;;;;;;;21.70;79.50;;;;;;5135845;27;19908;-51
2023/04/27 07:14:55;;;;;;;;;;;21.70;79.50;;;;;;5135597;27;19930;-55
2023/04/27 07:17:21;;;;;;;;;;;21.60;79.50;;;;;;5135341;27;20377;-54
2023/04/27 07:19:46;;;;;;;;;;;21.60;79.70;;;;;;5135297;27;19915;-56
2023/04/27 07:22:12;;;;;;;;;;;21.50;79.90;;;;;;5133923;27;20003;-55
2023/04/27 07:24:37;;;;;;;;;;;21.50;80.10;;;;;;5135658;27;19907;-55
2023/04/27 07:27:03;;;;;;;;;;;21.40;80.30;;;;;;5135311;27;19907;-55
2023/04/27 07:29:29;;;;;;;;;;;21.30;80.60;;;;;;5135601;27;20342;-56
2023/04/27 07:31:54;;;;;;;;;;;21.30;80.90;;;;;;5135155;27;19907;-52
2023/04/27 07:34:20;;;;;;;;;;;21.20;81.10;;;;;;5135414;27;19908;-53
2023/04/27 07:36:46;;;;;;;;;;;21.10;81.20;;;;;;5135435;27;20369;-55
2023/04/27 07:39:11;;;;;;;;;;;21.10;81.40;;;;;;5135445;27;19919;-55
2023/04/27 07:41:38;;;;;;;;;;;21.10;81.50;;;;;;5135422;27;20403;-53
2023/04/27 07:44:03;;;;;;;;;;;21.00;81.60;;;;;;5134853;27;19927;-57
2023/04/27 07:46:30;;;;;;;;;;;21.00;81.80;;;;;;5135549;27;19907;-56
2023/04/27 07:48:58;;;;;;;;;;;21.00;81.90;;;;;;5134805;27;20282;-55
2023/04/27 07:51:24;;;;;;;;;;;21.00;82.00;;;;;;5135187;27;20385;-54
2023/04/27 07:53:49;;;;;;;;;;;21.00;81.90;;;;;;5135081;27;19927;-53
2023/04/27 07:56:15;;;;;;;;;;;21.10;81.80;;;;;;5134804;27;19907;-56
2023/04/27 07:58:42;;;;;;;;;;;21.10;81.50;;;;;;5134926;27;20433;-52
2023/04/27 08:01:07;;;;;;;;;;;21.30;81.20;;;;;;5135067;27;19915;-55
2023/04/27 08:03:33;;;;;;;;;;;21.40;80.90;;;;;;5134682;27;19934;-55
2023/04/27 08:05:58;;;;;;;;;;;21.50;80.70;;;;;;5134850;27;20399;-51
2023/04/27 08:08:24;;;;;;;;;;;21.50;80.60;;;;;;5134556;27;20336;-55
2023/04/27 08:10:50;;;;;;;;;;;21.50;80.40;;;;;;5134919;27;19950;-53
2023/04/27 08:13:15;;;;;;;;;;;21.50;80.50;;;;;;5134780;27;19914;-53
2023/04/27 08:15:40;;;;;;;;;;;21.40;80.50;;;;;;5134875;27;19908;-54
2023/04/27 08:18:06;;;;;;;;;;;21.40;80.70;;;;;;5134960;27;19908;-53
2023/04/27 08:20:31;;;;;;;;;;;21.40;81.30;;;;;;5134533;27;20362;-54
2023/04/27 08:22:57;;;;;;;;;;;21.30;80.90;;;;;;5134624;27;19907;-56
2023/04/27 08:25:22;;;;;;;;;;;21.30;81.00;;;;;;5134628;27;19907;-56
2023/04/27 08:27:48;;;;;;;;;;;21.20;81.00;;;;;;5134501;27;19911;-54
2023/04/27 08:30:13;;;;;;;;;;;21.20;81.20;;;;;;5134656;27;19908;-56
2023/04/27 08:32:39;;;;;;;;;;;21.20;81.20;;;;;;5134387;27;20223;-54
2023/04/27 08:35:05;;;;;;;;;;;21.30;81.20;;;;;;5134606;27;19955;-55
2023/04/27 08:37:30;;;;;;;;;;;21.40;81.10;;;;;;5134413;27;19907;-56
2023/04/27 08:39:56;;;;;;;;;;;21.50;80.90;;;;;;5134370;27;19915;-55
2023/04/27 08:42:21;;;;;;;;;;;21.60;80.70;;;;;;5135465;27;19911;-56
2023/04/27 08:44:47;;;;;;;;;;;21.70;80.40;;;;;;5138848;27;19914;-54
2023/04/27 08:47:12;;;;;;;;;;;21.70;80.20;;;;;;5138657;27;20321;-53
2023/04/27 08:49:40;;;;;;;;;;;21.80;80.00;;;;;;5138208;27;19990;-53
2023/04/27 08:52:12;;;;;;;;;;;21.90;79.90;;;;;;5138225;27;19977;-56
2023/04/27 08:54:38;;;;;;;;;;;21.90;80.40;;;;;;5138313;27;19908;-55
2023/04/27 08:57:14;;;;;;;;;;;21.90;79.90;;;;;;5138291;27;19907;-55
2023/04/27 08:59:39;;;;;;;;;;;21.90;79.90;;;;;;5137995;27;19973;-56
2023/04/27 09:02:05;;;;;;;;;;;21.90;79.90;;;;;;5138395;27;19943;-51
2023/04/27 09:04:37;;;;;;;;;;;21.90;79.90;;;;;;5138454;27;19908;-55
2023/04/27 09:07:29;;;;;;;;;;;21.80;79.90;;;;;;5138099;27;20009;-56
2023/04/27 09:10:02;;;;;;;;;;;21.80;80.10;;;;;;5134250;27;19908;-56
2023/04/27 09:12:27;;;;;;;;;;;21.80;80.10;;;;;;5138101;27;20381;-56
2023/04/27 09:15:02;;;;;;;;;;;21.70;80.20;;;;;;5138116;27;19908;-54
2023/04/27 09:17:29;;;;;;;;;;;21.70;80.20;;;;;;5137916;27;19908;-56
2023/04/27 09:20:09;;;;;;;;;;;21.70;80.30;;;;;;5137893;27;20376;-55
2023/04/27 09:22:47;;;;;;;;;;;21.70;80.30;;;;;;5137903;27;19907;-56
2023/04/27 09:25:30;;;;;;;;;;;21.70;80.30;;;;;;5137918;27;19908;-56
2023/04/27 09:27:56;;;;;;;;;;;21.70;80.50;;;;;;5137878;27;19911;-55
2023/04/27 09:30:22;;;;;;;;;;;21.70;80.40;;;;;;5137337;27;19918;-56
2023/04/27 09:32:52;;;;;;;;;;;21.70;80.40;;;;;;5137425;27;20006;-56
2023/04/27 09:35:22;;;;;;;;;;;21.70;80.30;;;;;;5137976;27;19915;-56
2023/04/27 09:37:48;;;;;;;;;;;21.70;80.20;;;;;;5137373;27;20414;-57
2023/04/27 09:40:14;;;;;;;;;;;21.80;80.90;;;;;;5137268;27;20286;-52
2023/04/27 09:42:40;;;;;;;;;;;21.70;80.20;;;;;;5137388;27;19920;-55
2023/04/27 09:45:06;;;;;;;;;;;21.80;80.30;;;;;;5137296;27;19915;-55
2023/04/27 09:47:32;;;;;;;;;;;21.70;80.20;;;;;;5137436;27;19914;-54
2023/04/27 09:50:00;;;;;;;;;;;21.70;80.10;;;;;;5137394;27;19907;-53
2023/04/27 09:52:25;;;;;;;;;;;21.80;80.20;;;;;;5137278;27;20018;-52
2023/04/27 09:54:52;;;;;;;;;;;21.80;80.20;;;;;;5135670;27;19907;-53
2023/04/27 09:57:25;;;;;;;;;;;21.80;80.20;;;;;;5136559;27;20366;-54
2023/04/27 09:59:50;;;;;;;;;;;21.80;80.20;;;;;;5135759;27;19915;-55
2023/04/27 10:02:16;;;;;;;;;;;21.80;80.10;;;;;;5137357;27;19952;-56
2023/04/27 10:04:42;;;;;;;;;;;21.80;80.00;;;;;;5137082;27;19912;-55
2023/04/27 10:07:08;;;;;;;;;;;21.90;80.00;;;;;;5136652;27;19907;-56
2023/04/27 10:09:36;;;;;;;;;;;21.80;79.90;;;;;;5136585;27;20288;-55
2023/04/27 10:12:20;;;;;;;;;;;21.80;80.00;;;;;;5136875;27;19946;-56
2023/04/27 10:14:51;;;;;;;;;;;21.80;80.10;;;;;;5136872;27;20380;-52
2023/04/27 10:17:17;;;;;;;;;;;21.70;80.20;;;;;;5136620;27;19947;-55
2023/04/27 10:19:53;;;;;;;;;;;21.70;80.30;;;;;;5136655;27;19959;-52
2023/04/27 10:22:19;;;;;;;;;;;21.60;80.40;;;;;;5136774;27;19915;-52
2023/04/27 10:24:47;;;;;;;;;;;21.60;80.70;;;;;;5136663;27;19914;-54
2023/04/27 10:27:15;;;;;;;;;;;21.50;80.70;;;;;;5136510;27;19999;-56
2023/04/27 10:29:41;;;;;;;;;;;21.50;80.90;;;;;;5136546;27;20083;-54
2023/04/27 10:32:20;;;;;;;;;;;21.50;80.90;;;;;;5136262;27;19908;-53
2023/04/27 10:34:47;;;;;;;;;;;21.50;81.00;;;;;;5136091;27;20044;-54
2023/04/27 10:37:14;;;;;;;;;;;21.50;81.10;;;;;;5136219;27;20393;-55
2023/04/27 10:39:40;;;;;;;;;;;21.50;81.00;;;;;;5136177;27;20002;-55
2023/04/27 10:42:06;;;;;;;;;;;21.50;81.00;;;;;;5136493;27;19907;-53
2023/04/27 10:44:33;;;;;;;;;;;21.50;80.90;;;;;;5136551;27;19930;-54
2023/04/27 10:47:10;;;;;;;;;;;21.50;80.90;;;;;;5135993;27;19990;-56
2023/04/27 10:49:36;;;;;;;;;;;21.50;80.90;;;;;;5136333;27;20281;-55
2023/04/27 10:52:03;;;;;;;;;;;21.50;80.90;;;;;;5135985;27;19998;-54
2023/04/27 10:54:29;;;;;;;;;;;21.40;80.90;;;;;;5136314;27;19978;-55
2023/04/27 10:57:05;;;;;;;;;;;21.40;81.00;;;;;;5135820;27;20358;-55
2023/04/27 10:59:31;;;;;;;;;;;21.40;81.10;;;;;;5134755;27;19915;-56
2023/04/27 11:01:56;;;;;;;;;;;21.30;81.30;;;;;;5135922;27;19952;-53
2023/04/27 11:04:22;;;;;;;;;;;21.30;81.40;;;;;;5135993;27;20414;-56
2023/04/27 11:06:47;;;;;;;;;;;21.20;81.40;;;;;;5135226;27;19908;-54
2023/04/27 11:09:13;;;;;;;;;;;21.20;81.60;;;;;;5135694;27;19907;-56
2023/04/27 11:11:43;;;;;;;;;;;21.20;81.60;;;;;;5136026;27;19953;-52
2023/04/27 11:14:08;;;;;;;;;;;21.20;81.60;;;;;;5136057;27;19908;-53
2023/04/27 11:16:34;;;;;;;;;;;21.20;81.60;;;;;;5135560;27;20255;-52
2023/04/27 11:19:03;;;;;;;;;;;21.20;81.50;;;;;;5135518;27;20022;-52
2023/04/27 11:21:29;;;;;;;;;;;21.40;81.40;;;;;;5135261;27;20286;-52
2023/04/27 11:23:55;;;;;;;;;;;21.50;81.20;;;;;;5135551;27;19915;-51
2023/04/27 11:26:22;;;;;;;;;;;21.60;80.90;;;;;;5134176;27;20393;-53
2023/04/27 11:28:57;;;;;;;;;;;21.60;81.10;;;;;;5135464;27;19935;-55
2023/04/27 11:31:23;;;;;;;;;;;21.80;80.40;;;;;;5135375;27;19918;-55
2023/04/27 11:33:48;;;;;;;;;;;21.80;80.20;;;;;;5135293;27;19907;-54
2023/04/27 11:36:15;;;;;;;;;;;21.90;80.10;;;;;;5134909;27;20278;-56
2023/04/27 11:38:41;;;;;;;;;;;21.90;79.90;;;;;;5135016;27;19907;-55
2023/04/27 11:41:06;;;;;;;;;;;21.90;79.80;;;;;;5135132;27;20322;-56
2023/04/27 11:43:32;;;;;;;;;;;21.90;79.60;;;;;;5134684;27;20369;-55
2023/04/27 11:46:01;;;;;;;;;;;21.90;79.60;;;;;;5134923;27;20035;-53
2023/04/27 11:48:26;;;;;;;;;;;21.90;79.70;;;;;;5134743;27;19968;-53
2023/04/27 11:50:52;;;;;;;;;;;21.90;79.90;;;;;;5135093;27;20354;-56
2023/04/27 11:53:37;;;;;;;;;;;21.80;79.80;;;;;;5134702;27;19907;-53
2023/04/27 11:56:09;;;;;;;;;;;21.80;79.90;;;;;;5134916;27;20049;-54
2023/04/27 11:58:36;;;;;;;;;;;21.80;80.00;;;;;;5134913;27;19907;-54
2023/04/27 12:01:05;;;;;;;;;;;21.80;80.10;;;;;;5134524;27;19911;-54
2023/04/27 12:03:30;;;;;;;;;;;21.70;80.00;;;;;;5134722;27;19918;-55
2023/04/27 12:05:56;;;;;;;;;;;21.70;80.10;;;;;;5134534;27;19969;-55
2023/04/27 12:08:22;;;;;;;;;;;21.70;80.20;;;;;;5134504;27;19911;-56
2023/04/27 12:10:47;;;;;;;;;;;21.70;80.20;;;;;;5134517;27;19908;-55
2023/04/27 12:13:13;;;;;;;;;;;21.70;80.20;;;;;;5134363;27;19908;-55
2023/04/27 12:15:39;;;;;;;;;;;21.70;80.20;;;;;;5134922;27;20009;-54
2023/04/27 12:18:05;;;;;;;;;;;21.70;80.20;;;;;;5134074;27;19907;-54
2023/04/27 12:20:30;;;;;;;;;;;21.70;80.20;;;;;;5134618;27;20323;-55
2023/04/27 12:22:56;;;;;;;;;;;21.70;80.10;;;;;;5134622;27;19908;-55
2023/04/27 12:25:21;;;;;;;;;;;21.70;80.10;;;;;;5134486;27;19911;-55
2023/04/27 12:27:48;;;;;;;;;;;21.70;80.10;;;;;;5134684;27;19914;-54
2023/04/27 12:30:14;;;;;;;;;;;21.70;80.10;;;;;;5134546;27;19911;-55
2023/04/27 12:32:39;;;;;;;;;;;21.70;80.10;;;;;;5134518;27;19959;-53
2023/04/27 12:35:05;;;;;;;;;;;21.80;80.20;;;;;;5134693;27;19953;-56
2023/04/27 12:37:31;;;;;;;;;;;21.80;80.10;;;;;;5135027;27;19908;-53
2023/04/27 12:39:57;;;;;;;;;;;21.80;80.00;;;;;;5133849;27;19923;-55
2023/04/27 12:42:23;;;;;;;;;;;21.80;80.00;;;;;;5134468;27;19942;-54
2023/04/27 12:44:51;;;;;;;;;;;21.80;79.90;;;;;;5134695;27;19912;-54
2023/04/27 12:47:17;;;;;;;;;;;21.90;79.90;;;;;;5134513;27;20265;-54
2023/04/27 12:49:42;;;;;;;;;;;21.90;79.90;;;;;;5134567;27;19941;-55
2023/04/27 12:52:08;;;;;;;;;;;21.90;79.90;;;;;;5134280;27;19908;-54
2023/04/27 12:54:34;;;;;;;;;;;21.90;79.90;;;;;;5134331;27;19957;-54
2023/04/27 12:57:02;;;;;;;;;;;21.90;79.90;;;;;;5133010;27;19907;-55
2023/04/27 12:59:28;;;;;;;;;;;21.90;79.80;;;;;;5134382;27;19966;-54
2023/04/27 13:01:54;;;;;;;;;;;21.90;79.80;;;;;;5134223;27;19907;-55
2023/04/27 13:04:19;;;;;;;;;;;21.90;79.70;;;;;;5134509;27;19908;-54
2023/04/27 13:06:45;;;;;;;;;;;21.90;79.70;;;;;;5133982;27;19960;-55
2023/04/27 13:09:12;;;;;;;;;;;21.90;79.70;;;;;;5134283;27;19907;-55
2023/04/27 13:11:37;;;;;;;;;;;21.90;79.70;;;;;;5134556;27;19907;-55
2023/04/27 13:14:03;;;;;;;;;;;21.90;79.60;;;;;;5133921;27;19914;-52
2023/04/27 13:16:29;;;;;;;;;;;21.90;79.70;;;;;;5134059;27;19907;-52
2023/04/27 13:18:55;;;;;;;;;;;21.90;79.60;;;;;;5134091;27;20036;-55
2023/04/27 13:21:20;;;;;;;;;;;21.90;79.60;;;;;;5133805;27;19990;-55
2023/04/27 13:23:46;;;;;;;;;;;21.90;79.50;;;;;;5133765;27;19950;-56
2023/04/27 13:26:13;;;;;;;;;;;21.90;79.60;;;;;;5134465;27;19912;-55
2023/04/27 13:28:39;;;;;;;;;;;21.90;79.70;;;;;;5135175;27;20350;-54
2023/04/27 13:31:04;;;;;;;;;;;21.90;79.60;;;;;;5137754;27;19914;-55
2023/04/27 13:33:31;;;;;;;;;;;21.90;79.70;;;;;;5138265;27;20325;-52
2023/04/27 13:35:56;;;;;;;;;;;21.90;79.70;;;;;;5137474;27;19914;-55
2023/04/27 13:38:22;;;;;;;;;;;21.90;79.70;;;;;;5137468;27;19911;-54
2023/04/27 13:40:47;;;;;;;;;;;21.80;79.70;;;;;;5136957;27;19970;-55
2023/04/27 13:43:13;;;;;;;;;;;21.80;79.80;;;;;;5136998;27;19919;-55
2023/04/27 13:45:38;;;;;;;;;;;21.80;79.90;;;;;;5138015;27;20262;-51
2023/04/27 13:48:04;;;;;;;;;;;21.70;79.90;;;;;;5137539;27;19952;-54
2023/04/27 13:50:29;;;;;;;;;;;21.70;80.00;;;;;;5137540;27;19907;-54
2023/04/27 13:52:55;;;;;;;;;;;21.70;80.10;;;;;;5137115;27;20010;-53
2023/04/27 13:55:20;;;;;;;;;;;21.60;80.10;;;;;;5137463;27;19911;-54
2023/04/27 13:57:46;;;;;;;;;;;21.60;80.20;;;;;;5137185;27;19908;-54
2023/04/27 14:00:12;;;;;;;;;;;21.60;80.20;;;;;;5136809;27;19938;-52
2023/04/27 14:02:37;;;;;;;;;;;21.60;80.30;;;;;;5135160;27;19911;-55
2023/04/27 14:05:06;;;;;;;;;;;21.60;80.30;;;;;;5137042;27;20000;-53
2023/04/27 14:07:34;;;;;;;;;;;21.60;80.20;;;;;;5136881;27;20022;-55
2023/04/27 14:10:00;;;;;;;;;;;21.60;80.10;;;;;;5136674;27;20018;-53